createdAt,value
2019-03-25T00:00:55.213Z,13.27
2019-03-25T00:01:39.559Z,11.10
2019-03-25T00:02:17.674Z,9.43
2019-03-25T00:02:53.837Z,10.67
2019-03-25T00:03:30.254Z,11.97
2019-03-25T00:04:06.433Z,13.13
2019-03-25T00:04:42.512Z,12.10
2019-03-25T00:05:18.686Z,11.13
2019-03-25T00:05:54.802Z,14.57
2019-03-25T00:06:30.906Z,12.07
2019-03-25T00:07:07.017Z,11.50
2019-03-25T00:07:43.440Z,9.67
2019-03-25T00:08:19.818Z,12.53
2019-03-25T00:09:04.826Z,11.53
2019-03-25T00:09:33.945Z,8.00
2019-03-25T00:10:10.075Z,11.97
2019-03-25T00:10:46.208Z,11.13
2019-03-25T00:11:22.620Z,8.97
2019-03-25T00:11:58.776Z,10.07
2019-03-25T00:12:34.920Z,11.77
2019-03-25T00:13:11.386Z,11.33
2019-03-25T00:13:47.490Z,10.53
2019-03-25T00:14:23.590Z,9.97
2019-03-25T00:14:59.720Z,12.53
2019-03-25T00:15:35.811Z,11.07
2019-03-25T00:16:12.234Z,8.27
2019-03-25T00:16:48.322Z,9.27
2019-03-25T00:17:24.447Z,8.30
2019-03-25T00:18:00.588Z,10.73
2019-03-25T00:18:37.691Z,12.27
2019-03-25T00:19:13.775Z,8.47
2019-03-25T00:19:49.861Z,9.77
2019-03-25T00:20:27.052Z,9.33
2019-03-25T00:21:03.569Z,10.80
2019-03-25T00:21:39.674Z,10.13
2019-03-25T00:22:16.127Z,11.47
2019-03-25T00:22:52.211Z,10.57
2019-03-25T00:23:28.323Z,11.47
2019-03-25T00:24:04.663Z,11.87
2019-03-25T00:24:40.847Z,10.97
2019-03-25T00:25:17.072Z,12.10
2019-03-25T00:25:53.288Z,13.50
2019-03-25T00:26:29.379Z,11.33
2019-03-25T00:27:05.794Z,12.10
2019-03-25T00:27:41.875Z,9.43
2019-03-25T00:28:18.090Z,9.77
2019-03-25T00:28:54.205Z,10.33
2019-03-25T00:29:30.278Z,12.60
2019-03-25T00:30:06.672Z,14.47
2019-03-25T00:30:43.780Z,12.00
2019-03-25T00:31:19.870Z,11.03
2019-03-25T00:31:55.948Z,9.27
2019-03-25T00:32:32.039Z,10.83
2019-03-25T00:33:08.150Z,11.77
2019-03-25T00:33:44.252Z,11.47
2019-03-25T00:34:20.961Z,12.60
2019-03-25T00:34:57.066Z,13.00
2019-03-25T00:35:33.177Z,14.40
2019-03-25T00:36:09.274Z,10.57
2019-03-25T00:36:45.354Z,12.17
2019-03-25T00:37:21.516Z,14.17
2019-03-25T00:37:57.636Z,11.00
2019-03-25T00:38:33.722Z,14.00
2019-03-25T00:39:09.903Z,10.23
2019-03-25T00:39:46.262Z,11.97
2019-03-25T00:40:22.464Z,12.40
2019-03-25T00:40:58.558Z,12.37
2019-03-25T00:41:34.658Z,12.60
2019-03-25T00:42:10.755Z,11.20
2019-03-25T00:42:46.842Z,13.90
2019-03-25T00:43:22.996Z,12.70
2019-03-25T00:43:59.326Z,12.63
2019-03-25T00:44:35.972Z,12.20
2019-03-25T00:45:12.098Z,11.67
2019-03-25T00:45:48.182Z,14.30
2019-03-25T00:46:24.575Z,13.03
2019-03-25T00:47:01.272Z,12.23
2019-03-25T00:47:37.748Z,15.23
2019-03-25T00:48:14.915Z,9.90
2019-03-25T00:48:51.544Z,11.90
2019-03-25T00:49:27.623Z,10.83
2019-03-25T00:50:03.965Z,13.13
2019-03-25T00:50:40.437Z,14.30
2019-03-25T00:51:16.543Z,13.57
2019-03-25T00:51:52.729Z,13.00
2019-03-25T00:52:28.892Z,13.27
2019-03-25T00:53:05.240Z,11.07
2019-03-25T00:53:41.336Z,12.20
2019-03-25T00:54:18.165Z,11.90
2019-03-25T00:54:54.637Z,11.93
2019-03-25T00:55:31.392Z,11.20
2019-03-25T00:56:07.485Z,10.80
2019-03-25T00:56:43.576Z,11.53
2019-03-25T00:57:19.685Z,12.37
2019-03-25T00:57:55.784Z,11.37
2019-03-25T00:58:31.884Z,9.37
2019-03-25T00:59:07.946Z,16.17
2019-03-25T00:59:44.030Z,13.17
2019-03-25T01:00:20.413Z,10.30
2019-03-25T01:00:56.519Z,13.97
2019-03-25T01:01:32.596Z,13.07
2019-03-25T01:02:08.705Z,14.00
2019-03-25T01:02:45.074Z,12.20
2019-03-25T01:03:21.411Z,11.03
2019-03-25T01:03:57.775Z,10.97
2019-03-25T01:04:33.859Z,13.07
2019-03-25T01:05:09.982Z,13.07
2019-03-25T01:05:46.290Z,12.30
2019-03-25T01:06:22.374Z,11.03
2019-03-25T01:06:58.806Z,13.73
2019-03-25T01:07:35.167Z,10.80
2019-03-25T01:08:11.360Z,11.87
2019-03-25T01:08:48.682Z,8.73
2019-03-25T01:09:25.040Z,11.37
2019-03-25T01:10:01.216Z,10.77
2019-03-25T01:10:37.298Z,12.70
2019-03-25T01:11:13.395Z,11.60
2019-03-25T01:11:49.583Z,11.23
2019-03-25T01:12:25.667Z,13.57
2019-03-25T01:13:01.756Z,11.37
2019-03-25T01:13:38.230Z,13.47
2019-03-25T01:14:14.646Z,13.17
2019-03-25T01:14:50.743Z,12.10
2019-03-25T01:15:26.846Z,11.20
2019-03-25T01:16:02.967Z,11.73
2019-03-25T01:16:39.159Z,12.47
2019-03-25T01:17:15.289Z,9.63
2019-03-25T01:17:51.376Z,12.33
2019-03-25T01:18:27.466Z,9.73
2019-03-25T01:19:03.827Z,14.07
2019-03-25T01:19:39.911Z,18.27
2019-03-25T01:20:16.035Z,11.50
2019-03-25T01:20:52.206Z,11.27
2019-03-25T01:21:28.333Z,12.13
2019-03-25T01:22:04.443Z,11.17
2019-03-25T01:22:40.599Z,10.00
2019-03-25T01:23:16.711Z,11.60
2019-03-25T01:23:53.126Z,11.77
2019-03-25T01:24:29.228Z,12.17
2019-03-25T01:25:06.567Z,9.87
2019-03-25T01:25:42.659Z,11.37
2019-03-25T01:26:18.762Z,13.80
2019-03-25T01:26:55.151Z,11.30
2019-03-25T01:27:31.383Z,13.80
2019-03-25T01:28:07.470Z,9.87
2019-03-25T01:28:43.581Z,13.90
2019-03-25T01:29:19.707Z,15.80
2019-03-25T01:29:55.828Z,16.33
2019-03-25T01:30:31.922Z,11.97
2019-03-25T01:31:08.026Z,13.07
2019-03-25T01:31:44.110Z,15.00
2019-03-25T01:32:20.232Z,14.33
2019-03-25T01:32:57.302Z,11.70
2019-03-25T01:33:33.403Z,15.87
2019-03-25T01:34:09.550Z,11.93
2019-03-25T01:34:45.759Z,16.10
2019-03-25T01:35:21.889Z,13.40
2019-03-25T01:35:58.323Z,15.27
2019-03-25T01:36:34.418Z,16.50
2019-03-25T01:37:10.831Z,14.87
2019-03-25T01:37:46.966Z,13.90
2019-03-25T01:38:23.130Z,13.27
2019-03-25T01:38:59.220Z,15.57
2019-03-25T01:39:35.322Z,13.77
2019-03-25T01:40:11.414Z,14.00
2019-03-25T01:40:47.590Z,10.80
2019-03-25T01:41:23.784Z,15.53
2019-03-25T01:41:59.891Z,12.47
2019-03-25T01:42:35.998Z,14.03
2019-03-25T01:43:12.107Z,16.37
2019-03-25T01:43:48.216Z,12.57
2019-03-25T01:44:24.333Z,13.57
2019-03-25T01:45:00.416Z,13.23
2019-03-25T01:45:36.770Z,12.97
2019-03-25T01:46:13.212Z,14.80
2019-03-25T01:46:49.314Z,14.70
2019-03-25T01:47:25.446Z,16.23
2019-03-25T01:48:01.590Z,12.47
2019-03-25T01:48:37.678Z,12.87
2019-03-25T01:49:13.842Z,13.27
2019-03-25T01:49:50.015Z,11.57
2019-03-25T01:50:26.136Z,14.83
2019-03-25T01:51:02.221Z,18.07
2019-03-25T01:51:38.332Z,15.57
2019-03-25T01:52:14.442Z,16.07
2019-03-25T01:52:50.557Z,15.07
2019-03-25T01:53:26.730Z,10.97
2019-03-25T01:54:03.177Z,14.03
2019-03-25T01:54:39.292Z,13.07
2019-03-25T01:55:15.650Z,13.37
2019-03-25T01:55:52.023Z,13.07
2019-03-25T01:56:28.135Z,15.13
2019-03-25T01:57:04.251Z,13.20
2019-03-25T01:57:40.360Z,14.70
2019-03-25T01:58:16.466Z,18.70
2019-03-25T01:58:53.705Z,11.70
2019-03-25T01:59:29.790Z,12.07
2019-03-25T02:00:07.295Z,16.17
2019-03-25T02:00:43.499Z,11.93
2019-03-25T02:01:19.721Z,13.30
2019-03-25T02:01:55.875Z,10.60
2019-03-25T02:02:31.959Z,11.17
2019-03-25T02:03:08.122Z,15.37
2019-03-25T02:03:44.219Z,13.07
2019-03-25T02:04:20.387Z,13.70
2019-03-25T02:04:57.648Z,15.07
2019-03-25T02:05:33.734Z,15.47
2019-03-25T02:06:09.838Z,13.03
2019-03-25T02:06:45.999Z,12.80
2019-03-25T02:07:22.095Z,9.93
2019-03-25T02:07:58.194Z,11.47
2019-03-25T02:08:34.361Z,11.20
2019-03-25T02:09:10.486Z,11.77
2019-03-25T02:09:46.582Z,12.73
2019-03-25T02:10:22.732Z,11.30
2019-03-25T02:10:58.847Z,14.73
2019-03-25T02:11:35.046Z,11.87
2019-03-25T02:12:11.219Z,13.03
2019-03-25T02:12:47.418Z,16.73
2019-03-25T02:13:23.644Z,12.00
2019-03-25T02:13:59.802Z,14.47
2019-03-25T02:14:35.996Z,11.60
2019-03-25T02:15:12.118Z,11.03
2019-03-25T02:15:48.233Z,10.80
2019-03-25T02:16:24.663Z,13.40
2019-03-25T02:17:00.746Z,11.50
2019-03-25T02:17:36.934Z,10.43
2019-03-25T02:18:13.049Z,11.57
2019-03-25T02:18:49.478Z,13.13
2019-03-25T02:19:25.874Z,11.33
2019-03-25T02:20:02.073Z,15.27
2019-03-25T02:20:38.171Z,12.63
2019-03-25T02:21:14.310Z,12.63
2019-03-25T02:21:50.430Z,11.20
2019-03-25T02:22:26.577Z,12.97
2019-03-25T02:23:03.100Z,10.40
2019-03-25T02:23:39.607Z,12.23
2019-03-25T02:24:16.005Z,12.70
2019-03-25T02:24:52.271Z,13.87
2019-03-25T02:25:28.769Z,13.33
2019-03-25T02:26:05.132Z,12.50
2019-03-25T02:26:41.232Z,15.90
2019-03-25T02:27:17.411Z,14.83
2019-03-25T02:27:53.507Z,13.63
2019-03-25T02:28:29.598Z,12.10
2019-03-25T02:29:06.115Z,13.90
2019-03-25T02:29:42.586Z,10.90
2019-03-25T02:30:18.982Z,12.67
2019-03-25T02:30:55.100Z,14.93
2019-03-25T02:31:31.199Z,15.23
2019-03-25T02:32:07.344Z,13.10
2019-03-25T02:32:43.804Z,14.10
2019-03-25T02:33:19.910Z,12.90
2019-03-25T02:33:56.041Z,10.53
2019-03-25T02:34:32.116Z,14.23
2019-03-25T02:35:08.514Z,13.97
2019-03-25T02:35:44.891Z,11.63
2019-03-25T02:36:21.035Z,12.37
2019-03-25T02:36:57.123Z,13.33
2019-03-25T02:37:33.548Z,11.90
2019-03-25T02:38:09.634Z,12.20
2019-03-25T02:38:45.775Z,13.93
2019-03-25T02:39:21.874Z,12.37
2019-03-25T02:39:57.965Z,11.50
2019-03-25T02:40:34.044Z,13.87
2019-03-25T02:41:11.144Z,11.10
2019-03-25T02:41:47.332Z,12.97
2019-03-25T02:42:23.437Z,15.37
2019-03-25T02:43:00.497Z,12.47
2019-03-25T02:43:36.609Z,13.07
2019-03-25T02:44:12.704Z,11.33
2019-03-25T02:44:48.810Z,13.77
2019-03-25T02:45:25.026Z,10.97
2019-03-25T02:46:01.118Z,13.00
2019-03-25T02:46:37.216Z,11.20
2019-03-25T02:47:13.691Z,10.40
2019-03-25T02:47:49.774Z,14.00
2019-03-25T02:48:26.174Z,10.53
2019-03-25T02:49:02.327Z,16.63
2019-03-25T02:49:38.454Z,12.97
2019-03-25T02:50:14.565Z,11.33
2019-03-25T02:50:50.660Z,13.60
2019-03-25T02:51:26.769Z,11.50
2019-03-25T02:52:03.823Z,10.90
2019-03-25T02:52:39.932Z,11.63
2019-03-25T02:53:16.311Z,12.17
2019-03-25T02:53:52.417Z,14.10
2019-03-25T02:54:28.519Z,15.70
2019-03-25T02:55:04.861Z,11.00
2019-03-25T02:55:42.414Z,14.87
2019-03-25T02:56:18.906Z,15.63
2019-03-25T02:56:55.000Z,13.13
2019-03-25T02:57:31.360Z,12.43
2019-03-25T02:58:07.432Z,13.87
2019-03-25T02:58:43.521Z,12.87
2019-03-25T02:59:19.623Z,14.77
2019-03-25T02:59:55.744Z,11.93
2019-03-25T03:00:35.949Z,12.00
2019-03-25T03:01:12.045Z,14.20
2019-03-25T03:01:48.159Z,10.10
2019-03-25T03:02:33.668Z,12.70
2019-03-25T03:03:10.009Z,14.17
2019-03-25T03:03:46.094Z,14.03
2019-03-25T03:04:22.193Z,11.53
2019-03-25T03:04:58.366Z,10.90
2019-03-25T03:05:34.595Z,9.93
2019-03-25T03:06:10.983Z,13.73
2019-03-25T03:06:47.165Z,10.90
2019-03-25T03:07:23.305Z,10.40
2019-03-25T03:07:59.424Z,12.13
2019-03-25T03:08:35.532Z,14.97
2019-03-25T03:09:11.650Z,12.10
2019-03-25T03:09:47.796Z,12.73
2019-03-25T03:10:23.981Z,12.57
2019-03-25T03:11:00.089Z,12.33
2019-03-25T03:11:36.449Z,13.97
2019-03-25T03:12:12.570Z,15.27
2019-03-25T03:12:48.716Z,15.07
2019-03-25T03:13:25.064Z,14.63
2019-03-25T03:14:01.173Z,14.27
2019-03-25T03:14:37.270Z,10.57
2019-03-25T03:15:13.386Z,11.63
2019-03-25T03:15:49.489Z,14.87
2019-03-25T03:16:25.843Z,14.80
2019-03-25T03:17:01.922Z,11.63
2019-03-25T03:17:38.033Z,12.27
2019-03-25T03:18:14.130Z,10.73
2019-03-25T03:18:50.239Z,11.47
2019-03-25T03:19:27.323Z,10.23
2019-03-25T03:20:03.753Z,11.60
2019-03-25T03:20:40.260Z,10.73
2019-03-25T03:21:16.626Z,11.83
2019-03-25T03:21:52.742Z,14.60
2019-03-25T03:22:28.826Z,11.80
2019-03-25T03:23:05.177Z,10.70
2019-03-25T03:23:41.684Z,14.50
2019-03-25T03:24:17.780Z,12.03
2019-03-25T03:24:54.114Z,10.40
2019-03-25T03:25:30.218Z,11.97
2019-03-25T03:26:06.314Z,11.90
2019-03-25T03:26:43.476Z,11.93
2019-03-25T03:27:19.601Z,11.57
2019-03-25T03:27:55.709Z,12.47
2019-03-25T03:28:31.799Z,12.37
2019-03-25T03:29:08.162Z,17.00
2019-03-25T03:29:44.263Z,11.77
2019-03-25T03:30:20.364Z,13.63
2019-03-25T03:30:56.455Z,11.03
2019-03-25T03:31:32.631Z,13.20
2019-03-25T03:32:08.821Z,11.43
2019-03-25T03:32:45.013Z,10.50
2019-03-25T03:33:21.777Z,13.77
2019-03-25T03:33:58.169Z,15.03
2019-03-25T03:34:34.282Z,12.53
2019-03-25T03:35:10.415Z,14.40
2019-03-25T03:35:46.845Z,9.57
2019-03-25T03:36:23.142Z,12.07
2019-03-25T03:36:59.242Z,11.17
2019-03-25T03:37:35.338Z,13.27
2019-03-25T03:38:11.859Z,11.13
2019-03-25T03:38:47.963Z,11.20
2019-03-25T03:39:24.079Z,13.63
2019-03-25T03:40:00.725Z,11.67
2019-03-25T03:40:36.897Z,12.03
2019-03-25T03:41:13.009Z,14.07
2019-03-25T03:41:49.099Z,15.20
2019-03-25T03:42:25.256Z,13.40
2019-03-25T03:43:01.431Z,10.37
2019-03-25T03:43:37.540Z,12.97
2019-03-25T03:44:13.624Z,12.80
2019-03-25T03:44:49.731Z,11.30
2019-03-25T03:45:26.786Z,9.90
2019-03-25T03:46:02.873Z,10.47
2019-03-25T03:46:38.986Z,12.87
2019-03-25T03:47:15.344Z,16.00
2019-03-25T03:47:51.683Z,9.93
2019-03-25T03:48:27.750Z,12.87
2019-03-25T03:49:03.831Z,13.40
2019-03-25T03:49:39.939Z,10.77
2019-03-25T03:50:24.792Z,13.67
2019-03-25T03:51:01.133Z,13.97
2019-03-25T03:51:37.492Z,13.23
2019-03-25T03:52:13.609Z,11.80
2019-03-25T03:52:49.719Z,12.70
2019-03-25T03:53:26.089Z,11.30
2019-03-25T03:54:02.184Z,11.83
2019-03-25T03:54:38.544Z,12.33
2019-03-25T03:55:14.638Z,10.83
2019-03-25T03:55:50.871Z,15.40
2019-03-25T03:56:26.982Z,13.20
2019-03-25T03:57:03.337Z,12.37
2019-03-25T03:57:39.751Z,13.97
2019-03-25T03:58:15.889Z,11.67
2019-03-25T03:58:51.990Z,13.37
2019-03-25T03:59:28.364Z,15.03
2019-03-25T04:00:04.883Z,9.77
2019-03-25T04:00:42.256Z,12.50
2019-03-25T04:01:18.357Z,14.27
2019-03-25T04:01:54.723Z,13.93
2019-03-25T04:02:30.809Z,14.60
2019-03-25T04:03:06.903Z,18.47
2019-03-25T04:03:43.004Z,12.63
2019-03-25T04:04:19.454Z,17.23
2019-03-25T04:04:55.561Z,13.23
2019-03-25T04:05:31.647Z,14.57
2019-03-25T04:06:08.004Z,12.97
2019-03-25T04:06:44.096Z,11.87
2019-03-25T04:07:20.224Z,12.90
2019-03-25T04:07:56.325Z,10.67
2019-03-25T04:08:32.421Z,13.50
2019-03-25T04:09:08.848Z,9.53
2019-03-25T04:09:45.011Z,13.30
2019-03-25T04:10:21.361Z,12.90
2019-03-25T04:10:57.711Z,15.63
2019-03-25T04:11:34.062Z,12.17
2019-03-25T04:12:10.184Z,13.17
2019-03-25T04:12:46.672Z,13.03
2019-03-25T04:13:22.813Z,11.17
2019-03-25T04:13:59.318Z,14.60
2019-03-25T04:14:35.480Z,12.70
2019-03-25T04:15:16.340Z,12.27
2019-03-25T04:15:52.694Z,12.23
2019-03-25T04:16:29.087Z,13.57
2019-03-25T04:17:05.180Z,10.90
2019-03-25T04:17:41.580Z,12.47
2019-03-25T04:18:17.720Z,11.70
2019-03-25T04:18:53.845Z,14.53
2019-03-25T04:19:30.922Z,14.23
2019-03-25T04:20:07.604Z,9.93
2019-03-25T04:20:43.688Z,11.10
2019-03-25T04:21:20.133Z,12.30
2019-03-25T04:21:56.229Z,12.57
2019-03-25T04:22:32.315Z,12.20
2019-03-25T04:23:08.702Z,14.53
2019-03-25T04:23:46.515Z,12.90
2019-03-25T04:24:22.760Z,9.70
2019-03-25T04:24:58.838Z,11.93
2019-03-25T04:25:35.039Z,12.70
2019-03-25T04:26:27.030Z,10.43
2019-03-25T04:26:49.263Z,14.13
2019-03-25T04:27:25.364Z,13.37
2019-03-25T04:28:01.469Z,14.87
2019-03-25T04:28:37.641Z,11.13
2019-03-25T04:29:13.783Z,18.50
2019-03-25T04:29:49.883Z,14.60
2019-03-25T04:30:26.404Z,11.43
2019-03-25T04:31:02.506Z,11.63
2019-03-25T04:31:38.609Z,12.63
2019-03-25T04:32:15.235Z,10.10
2019-03-25T04:32:52.430Z,12.10
2019-03-25T04:33:28.872Z,12.40
2019-03-25T04:34:05.015Z,12.00
2019-03-25T04:34:42.115Z,11.43
2019-03-25T04:35:18.231Z,10.87
2019-03-25T04:35:54.355Z,12.10
2019-03-25T04:36:30.745Z,14.33
2019-03-25T04:37:06.841Z,11.80
2019-03-25T04:37:43.294Z,17.70
2019-03-25T04:38:19.644Z,12.50
2019-03-25T04:38:56.358Z,11.13
2019-03-25T04:39:32.545Z,15.00
2019-03-25T04:40:08.689Z,14.23
2019-03-25T04:40:44.821Z,14.60
2019-03-25T04:41:20.980Z,14.17
2019-03-25T04:41:57.097Z,17.40
2019-03-25T04:42:33.282Z,13.23
2019-03-25T04:43:09.396Z,13.60
2019-03-25T04:43:45.572Z,13.23
2019-03-25T04:44:21.943Z,12.47
2019-03-25T04:44:58.052Z,16.17
2019-03-25T04:45:34.398Z,17.73
2019-03-25T04:46:10.496Z,15.10
2019-03-25T04:46:46.700Z,17.20
2019-03-25T04:47:23.422Z,15.80
2019-03-25T04:47:59.510Z,17.37
2019-03-25T04:48:35.623Z,13.47
2019-03-25T04:49:11.723Z,16.63
2019-03-25T04:49:48.766Z,18.07
2019-03-25T04:50:24.910Z,18.83
2019-03-25T04:51:00.999Z,20.63
2019-03-25T04:51:37.094Z,21.80
2019-03-25T04:52:13.476Z,23.63
2019-03-25T04:52:49.654Z,24.93
2019-03-25T04:53:25.767Z,22.87
2019-03-25T04:54:02.183Z,26.87
2019-03-25T04:54:38.310Z,22.47
2019-03-25T04:55:14.452Z,26.57
2019-03-25T04:55:50.611Z,18.20
2019-03-25T04:56:26.775Z,20.23
2019-03-25T04:57:02.873Z,19.83
2019-03-25T04:57:39.009Z,20.80
2019-03-25T04:58:15.650Z,18.77
2019-03-25T04:58:51.766Z,18.77
2019-03-25T04:59:27.855Z,17.63
2019-03-25T05:00:04.034Z,19.30
2019-03-25T05:00:41.472Z,19.50
2019-03-25T05:01:17.579Z,17.87
2019-03-25T05:01:53.770Z,15.67
2019-03-25T05:02:29.985Z,15.13
2019-03-25T05:03:06.323Z,17.17
2019-03-25T05:03:42.439Z,19.70
2019-03-25T05:04:18.555Z,18.23
2019-03-25T05:04:54.895Z,14.90
2019-03-25T05:05:31.029Z,18.50
2019-03-25T05:06:07.780Z,15.03
2019-03-25T05:06:43.866Z,16.77
2019-03-25T05:07:21.076Z,19.93
2019-03-25T05:07:57.171Z,16.37
2019-03-25T05:08:33.328Z,19.27
2019-03-25T05:09:09.462Z,17.93
2019-03-25T05:09:45.838Z,17.70
2019-03-25T05:10:22.217Z,18.77
2019-03-25T05:10:58.689Z,15.17
2019-03-25T05:11:35.763Z,15.13
2019-03-25T05:12:11.863Z,15.23
2019-03-25T05:12:47.952Z,12.63
2019-03-25T05:13:24.042Z,12.90
2019-03-25T05:14:00.180Z,11.97
2019-03-25T05:14:36.314Z,16.70
2019-03-25T05:15:12.742Z,14.87
2019-03-25T05:15:48.860Z,16.17
2019-03-25T05:16:24.955Z,14.73
2019-03-25T05:17:01.053Z,15.70
2019-03-25T05:17:38.379Z,13.17
2019-03-25T05:18:14.516Z,14.90
2019-03-25T05:18:50.653Z,14.87
2019-03-25T05:19:27.126Z,13.00
2019-03-25T05:20:03.494Z,15.23
2019-03-25T05:20:39.869Z,11.73
2019-03-25T05:21:15.960Z,13.00
2019-03-25T05:21:52.495Z,12.10
2019-03-25T05:22:28.599Z,14.47
2019-03-25T05:23:04.975Z,11.20
2019-03-25T05:23:41.068Z,14.80
2019-03-25T05:24:17.448Z,15.23
2019-03-25T05:24:53.596Z,11.40
2019-03-25T05:25:29.989Z,14.57
2019-03-25T05:26:06.412Z,16.83
2019-03-25T05:26:50.923Z,13.33
2019-03-25T05:27:20.698Z,15.17
2019-03-25T05:27:56.863Z,11.83
2019-03-25T05:28:32.954Z,14.23
2019-03-25T05:29:09.056Z,14.17
2019-03-25T05:29:45.167Z,17.17
2019-03-25T05:30:22.974Z,16.37
2019-03-25T05:30:59.454Z,15.30
2019-03-25T05:31:35.578Z,14.20
2019-03-25T05:32:11.963Z,16.47
2019-03-25T05:32:48.082Z,13.57
2019-03-25T05:33:24.462Z,14.10
2019-03-25T05:34:00.556Z,12.50
2019-03-25T05:34:36.700Z,11.53
2019-03-25T05:35:12.799Z,12.47
2019-03-25T05:35:49.186Z,13.67
2019-03-25T05:36:25.287Z,12.77
2019-03-25T05:37:01.466Z,14.70
2019-03-25T05:37:37.831Z,12.20
2019-03-25T05:38:13.951Z,12.13
2019-03-25T05:38:50.049Z,11.40
2019-03-25T05:39:26.153Z,15.23
2019-03-25T05:40:02.299Z,12.07
2019-03-25T05:40:39.395Z,15.47
2019-03-25T05:41:16.472Z,14.97
2019-03-25T05:41:52.946Z,18.00
2019-03-25T05:42:29.049Z,13.37
2019-03-25T05:43:05.404Z,18.87
2019-03-25T05:43:41.499Z,14.77
2019-03-25T05:44:17.867Z,14.77
2019-03-25T05:44:54.243Z,20.17
2019-03-25T05:45:31.496Z,14.70
2019-03-25T05:46:07.916Z,17.50
2019-03-25T05:46:44.052Z,16.67
2019-03-25T05:47:20.180Z,14.37
2019-03-25T05:47:56.286Z,14.53
2019-03-25T05:48:33.377Z,11.80
2019-03-25T05:49:09.552Z,11.97
2019-03-25T05:49:45.996Z,14.27
2019-03-25T05:50:22.339Z,14.70
2019-03-25T05:50:58.463Z,15.87
2019-03-25T05:51:34.563Z,14.37
2019-03-25T05:52:11.606Z,11.83
2019-03-25T05:52:47.974Z,14.13
2019-03-25T05:53:24.104Z,15.97
2019-03-25T05:54:00.202Z,11.83
2019-03-25T05:54:36.306Z,13.27
2019-03-25T05:55:12.691Z,14.57
2019-03-25T05:55:48.847Z,14.53
2019-03-25T05:56:24.966Z,19.77
2019-03-25T05:57:02.805Z,17.77
2019-03-25T05:57:39.360Z,17.43
2019-03-25T05:58:15.464Z,13.50
2019-03-25T05:58:51.572Z,11.10
2019-03-25T05:59:28.178Z,17.00
2019-03-25T06:00:04.422Z,15.30
2019-03-25T06:00:40.664Z,9.80
2019-03-25T06:01:16.967Z,18.00
2019-03-25T06:01:53.107Z,16.03
2019-03-25T06:02:29.752Z,13.07
2019-03-25T06:03:05.855Z,18.10
2019-03-25T06:03:41.972Z,14.57
2019-03-25T06:04:18.081Z,15.70
2019-03-25T06:04:54.211Z,15.37
2019-03-25T06:05:30.345Z,15.00
2019-03-25T06:06:06.460Z,17.03
2019-03-25T06:06:42.637Z,15.80
2019-03-25T06:07:19.726Z,15.80
2019-03-25T06:07:55.835Z,14.87
2019-03-25T06:08:31.948Z,12.07
2019-03-25T06:09:08.050Z,15.10
2019-03-25T06:09:44.131Z,23.77
2019-03-25T06:10:20.501Z,16.17
2019-03-25T06:10:56.994Z,14.83
2019-03-25T06:11:33.149Z,18.07
2019-03-25T06:12:09.294Z,19.80
2019-03-25T06:12:45.391Z,16.53
2019-03-25T06:13:21.493Z,17.47
2019-03-25T06:13:57.599Z,13.47
2019-03-25T06:14:33.975Z,19.87
2019-03-25T06:15:10.205Z,18.43
2019-03-25T06:15:46.573Z,18.17
2019-03-25T06:16:22.671Z,19.10
2019-03-25T06:16:58.774Z,18.90
2019-03-25T06:17:35.872Z,20.30
2019-03-25T06:18:12.250Z,18.83
2019-03-25T06:18:48.381Z,16.63
2019-03-25T06:19:24.728Z,18.37
2019-03-25T06:20:00.872Z,17.70
2019-03-25T06:20:37.313Z,19.70
2019-03-25T06:21:13.463Z,20.20
2019-03-25T06:21:49.566Z,19.47
2019-03-25T06:22:25.731Z,20.57
2019-03-25T06:23:01.900Z,14.77
2019-03-25T06:23:38.044Z,17.07
2019-03-25T06:24:14.136Z,18.03
2019-03-25T06:24:50.271Z,26.90
2019-03-25T06:25:27.085Z,19.20
2019-03-25T06:26:03.462Z,15.97
2019-03-25T06:26:39.818Z,15.40
2019-03-25T06:27:16.451Z,20.20
2019-03-25T06:27:52.604Z,18.93
2019-03-25T06:28:28.721Z,16.07
2019-03-25T06:29:04.849Z,15.77
2019-03-25T06:29:41.024Z,18.37
2019-03-25T06:30:17.419Z,16.60
2019-03-25T06:30:53.507Z,16.83
2019-03-25T06:31:29.607Z,16.63
2019-03-25T06:32:05.714Z,18.37
2019-03-25T06:32:41.829Z,17.83
2019-03-25T06:33:18.182Z,18.53
2019-03-25T06:33:54.303Z,17.33
2019-03-25T06:34:30.410Z,15.90
2019-03-25T06:35:08.799Z,18.97
2019-03-25T06:35:44.727Z,16.33
2019-03-25T06:36:20.818Z,15.97
2019-03-25T06:36:56.954Z,18.00
2019-03-25T06:37:33.044Z,19.27
2019-03-25T06:38:09.147Z,19.87
2019-03-25T06:38:45.343Z,14.20
2019-03-25T06:39:21.500Z,18.67
2019-03-25T06:39:57.982Z,18.47
2019-03-25T06:40:34.344Z,18.60
2019-03-25T06:41:10.456Z,17.83
2019-03-25T06:41:46.574Z,17.60
2019-03-25T06:42:22.692Z,15.23
2019-03-25T06:42:58.781Z,20.40
2019-03-25T06:43:34.859Z,19.50
2019-03-25T06:44:11.243Z,18.70
2019-03-25T06:44:47.410Z,18.00
2019-03-25T06:45:23.554Z,18.80
2019-03-25T06:45:59.680Z,15.83
2019-03-25T06:46:36.031Z,16.60
2019-03-25T06:47:12.195Z,20.53
2019-03-25T06:47:48.306Z,21.17
2019-03-25T06:48:24.402Z,16.00
2019-03-25T06:49:00.514Z,16.30
2019-03-25T06:49:36.613Z,17.83
2019-03-25T06:50:12.772Z,19.07
2019-03-25T06:50:48.888Z,17.67
2019-03-25T06:51:24.992Z,12.20
2019-03-25T06:52:01.479Z,18.63
2019-03-25T06:52:37.600Z,17.33
2019-03-25T06:53:13.701Z,14.33
2019-03-25T06:53:50.080Z,20.57
2019-03-25T06:54:26.176Z,17.33
2019-03-25T06:55:02.633Z,17.70
2019-03-25T06:55:38.921Z,17.73
2019-03-25T06:56:15.573Z,14.03
2019-03-25T06:56:51.686Z,18.90
2019-03-25T06:57:28.281Z,16.53
2019-03-25T06:58:04.400Z,19.03
2019-03-25T06:58:40.541Z,15.87
2019-03-25T06:59:16.622Z,18.43
2019-03-25T06:59:52.740Z,16.97
2019-03-25T07:00:30.083Z,19.13
2019-03-25T07:01:06.250Z,16.90
2019-03-25T07:01:42.632Z,18.77
2019-03-25T07:02:18.710Z,23.73
2019-03-25T07:02:54.830Z,16.90
2019-03-25T07:03:30.948Z,17.50
2019-03-25T07:04:07.038Z,18.87
2019-03-25T07:04:43.128Z,19.80
2019-03-25T07:05:19.287Z,22.63
2019-03-25T07:05:55.422Z,20.13
2019-03-25T07:06:31.905Z,18.03
2019-03-25T07:07:08.033Z,23.93
2019-03-25T07:07:44.236Z,22.97
2019-03-25T07:08:20.588Z,17.63
2019-03-25T07:08:57.005Z,17.53
2019-03-25T07:09:33.113Z,22.30
2019-03-25T07:10:09.721Z,20.83
2019-03-25T07:10:45.824Z,19.17
2019-03-25T07:11:21.943Z,20.63
2019-03-25T07:11:58.035Z,19.83
2019-03-25T07:12:34.136Z,26.77
2019-03-25T07:13:10.257Z,21.80
2019-03-25T07:13:46.363Z,17.77
2019-03-25T07:14:22.471Z,19.60
2019-03-25T07:14:58.572Z,21.63
2019-03-25T07:15:34.673Z,20.83
2019-03-25T07:16:10.772Z,19.33
2019-03-25T07:16:46.866Z,18.60
2019-03-25T07:17:27.394Z,20.10
2019-03-25T07:18:03.536Z,19.77
2019-03-25T07:18:40.463Z,18.33
2019-03-25T07:19:16.870Z,19.67
2019-03-25T07:19:54.037Z,19.27
2019-03-25T07:20:30.460Z,19.07
2019-03-25T07:21:06.571Z,19.27
2019-03-25T07:21:42.771Z,20.13
2019-03-25T07:22:19.694Z,19.03
2019-03-25T07:22:55.798Z,23.47
2019-03-25T07:23:31.906Z,19.80
2019-03-25T07:24:07.986Z,17.73
2019-03-25T07:24:44.367Z,20.93
2019-03-25T07:25:20.455Z,16.73
2019-03-25T07:25:56.550Z,15.90
2019-03-25T07:26:32.705Z,22.07
2019-03-25T07:27:09.088Z,14.67
2019-03-25T07:27:45.214Z,17.53
2019-03-25T07:28:21.329Z,19.40
2019-03-25T07:28:57.441Z,17.00
2019-03-25T07:29:33.563Z,18.43
2019-03-25T07:30:11.392Z,20.27
2019-03-25T07:30:47.498Z,21.27
2019-03-25T07:31:23.590Z,19.30
2019-03-25T07:32:00.284Z,21.13
2019-03-25T07:32:36.422Z,22.13
2019-03-25T07:33:12.807Z,19.47
2019-03-25T07:33:48.915Z,13.67
2019-03-25T07:34:25.037Z,18.27
2019-03-25T07:35:01.477Z,19.43
2019-03-25T07:35:37.610Z,18.17
2019-03-25T07:36:13.738Z,17.97
2019-03-25T07:36:50.154Z,17.13
2019-03-25T07:37:26.327Z,27.07
2019-03-25T07:38:02.430Z,20.87
2019-03-25T07:38:38.875Z,16.50
2019-03-25T07:39:15.231Z,18.13
2019-03-25T07:39:51.646Z,19.10
2019-03-25T07:40:27.739Z,17.27
2019-03-25T07:41:03.847Z,18.53
2019-03-25T07:41:41.085Z,23.03
2019-03-25T07:42:17.194Z,16.10
2019-03-25T07:42:53.399Z,16.37
2019-03-25T07:43:29.529Z,20.20
2019-03-25T07:44:08.686Z,19.77
2019-03-25T07:44:44.447Z,16.13
2019-03-25T07:45:20.621Z,19.23
2019-03-25T07:45:56.732Z,18.17
2019-03-25T07:46:32.846Z,18.73
2019-03-25T07:47:09.080Z,19.50
2019-03-25T07:47:45.233Z,22.10
2019-03-25T07:48:21.333Z,20.33
2019-03-25T07:48:57.418Z,14.43